sensor_id;sensor_type;location;lat;lon;timestamp;pressure;altitude;pressure_sealevel;temperature;humidity
25658;BME280;13517;59.320;18.042;2022-07-23T00:00:48;100613.94;;;17.43;100.00
25658;BME280;13517;59.320;18.042;2022-07-23T00:03:13;100618.50;;;17.43;100.00
25658;BME280;13517;59.320;18.042;2022-07-23T00:05:39;100601.75;;;17.28;100.00
25658;BME280;13517;59.320;18.042;2022-07-23T00:08:06;100596.44;;;17.26;100.00
25658;BME280;13517;59.320;18.042;2022-07-23T00:10:31;100618.13;;;17.38;100.00
25658;BME280;13517;59.320;18.042;2022-07-23T00:12:57;100591.97;;;17.25;100.00
25658;BME280;13517;59.320;18.042;2022-07-23T00:15:22;100588.53;;;17.23;100.00
25658;BME280;13517;59.320;18.042;2022-07-23T00:17:47;100605.75;;;17.34;100.00
25658;BME280;13517;59.320;18.042;2022-07-23T00:20:13;100608.50;;;17.34;100.00
25658;BME280;13517;59.320;18.042;2022-07-23T00:22:52;100598.16;;;17.18;100.00
25658;BME280;13517;59.320;18.042;2022-07-23T00:25:18;100612.66;;;17.28;100.00
25658;BME280;13517;59.320;18.042;2022-07-23T00:27:44;100591.44;;;17.12;100.00
25658;BME280;13517;59.320;18.042;2022-07-23T00:30:10;100611.66;;;17.19;100.00
25658;BME280;13517;59.320;18.042;2022-07-23T00:32:50;100594.44;;;16.89;100.00
25658;BME280;13517;59.320;18.042;2022-07-23T00:35:16;100627.00;;;17.00;100.00
25658;BME280;13517;59.320;18.042;2022-07-23T00:37:41;100622.16;;;16.94;100.00
25658;BME280;13517;59.320;18.042;2022-07-23T00:40:07;100620.41;;;16.93;100.00
25658;BME280;13517;59.320;18.042;2022-07-23T00:42:33;100625.16;;;16.81;100.00
25658;BME280;13517;59.320;18.042;2022-07-23T00:44:58;100629.31;;;16.75;100.00
25658;BME280;13517;59.320;18.042;2022-07-23T00:47:23;100625.44;;;16.58;100.00
25658;BME280;13517;59.320;18.042;2022-07-23T00:49:49;100627.72;;;16.53;100.00
25658;BME280;13517;59.320;18.042;2022-07-23T00:52:14;100604.47;;;16.39;100.00
25658;BME280;13517;59.320;18.042;2022-07-23T00:54:40;100628.13;;;16.48;100.00
25658;BME280;13517;59.320;18.042;2022-07-23T00:57:05;100615.78;;;16.34;100.00
25658;BME280;13517;59.320;18.042;2022-07-23T00:59:30;100611.31;;;16.24;100.00
25658;BME280;13517;59.320;18.042;2022-07-23T01:01:56;100631.38;;;16.23;100.00
25658;BME280;13517;59.320;18.042;2022-07-23T01:04:21;100623.03;;;16.14;100.00
25658;BME280;13517;59.320;18.042;2022-07-23T01:06:47;100604.50;;;16.08;100.00
25658;BME280;13517;59.320;18.042;2022-07-23T01:09:13;100636.69;;;16.24;100.00
25658;BME280;13517;59.320;18.042;2022-07-23T01:11:39;100634.38;;;16.19;100.00
25658;BME280;13517;59.320;18.042;2022-07-23T01:14:10;100608.66;;;16.02;100.00
25658;BME280;13517;59.320;18.042;2022-07-23T01:16:36;100617.78;;;15.91;100.00
25658;BME280;13517;59.320;18.042;2022-07-23T01:19:01;100625.84;;;15.93;100.00
25658;BME280;13517;59.320;18.042;2022-07-23T01:21:27;100624.63;;;15.86;100.00
25658;BME280;13517;59.320;18.042;2022-07-23T01:23:52;100613.69;;;15.76;100.00
25658;BME280;13517;59.320;18.042;2022-07-23T01:26:17;100621.41;;;15.71;100.00
25658;BME280;13517;59.320;18.042;2022-07-23T01:28:43;100616.78;;;15.61;100.00
25658;BME280;13517;59.320;18.042;2022-07-23T01:31:08;100602.97;;;15.53;100.00
25658;BME280;13517;59.320;18.042;2022-07-23T01:33:34;100606.84;;;15.50;100.00
25658;BME280;13517;59.320;18.042;2022-07-23T01:35:59;100607.91;;;15.38;100.00
25658;BME280;13517;59.320;18.042;2022-07-23T01:38:24;100627.81;;;15.38;100.00
25658;BME280;13517;59.320;18.042;2022-07-23T01:40:49;100633.81;;;15.32;100.00
25658;BME280;13517;59.320;18.042;2022-07-23T01:43:15;100620.84;;;15.24;100.00
25658;BME280;13517;59.320;18.042;2022-07-23T01:45:40;100633.31;;;15.27;100.00
25658;BME280;13517;59.320;18.042;2022-07-23T01:48:06;100637.97;;;15.15;100.00
25658;BME280;13517;59.320;18.042;2022-07-23T01:50:32;100641.47;;;15.06;100.00
25658;BME280;13517;59.320;18.042;2022-07-23T01:52:57;100633.97;;;14.98;100.00
25658;BME280;13517;59.320;18.042;2022-07-23T01:55:22;100630.53;;;14.96;100.00
25658;BME280;13517;59.320;18.042;2022-07-23T01:57:48;100613.97;;;14.88;100.00
25658;BME280;13517;59.320;18.042;2022-07-23T02:00:13;100624.34;;;14.94;100.00
25658;BME280;13517;59.320;18.042;2022-07-23T02:02:38;100630.28;;;14.88;100.00
25658;BME280;13517;59.320;18.042;2022-07-23T02:05:04;100612.16;;;14.77;100.00
25658;BME280;13517;59.320;18.042;2022-07-23T02:07:29;100610.47;;;14.64;100.00
25658;BME280;13517;59.320;18.042;2022-07-23T02:09:55;100630.56;;;14.73;100.00
25658;BME280;13517;59.320;18.042;2022-07-23T02:12:20;100603.69;;;14.58;100.00
25658;BME280;13517;59.320;18.042;2022-07-23T02:14:45;100616.66;;;14.55;100.00
25658;BME280;13517;59.320;18.042;2022-07-23T02:17:10;100596.94;;;14.41;100.00
25658;BME280;13517;59.320;18.042;2022-07-23T02:19:36;100605.25;;;14.40;100.00
25658;BME280;13517;59.320;18.042;2022-07-23T02:22:01;100594.38;;;14.40;100.00
25658;BME280;13517;59.320;18.042;2022-07-23T02:24:26;100597.53;;;14.45;100.00
25658;BME280;13517;59.320;18.042;2022-07-23T02:26:52;100607.66;;;14.54;100.00
25658;BME280;13517;59.320;18.042;2022-07-23T02:29:17;100581.78;;;14.39;100.00
25658;BME280;13517;59.320;18.042;2022-07-23T02:31:42;100567.94;;;14.30;100.00
25658;BME280;13517;59.320;18.042;2022-07-23T02:34:07;100594.38;;;14.40;100.00
25658;BME280;13517;59.320;18.042;2022-07-23T02:36:36;100581.91;;;14.26;100.00
25658;BME280;13517;59.320;18.042;2022-07-23T02:39:01;100608.94;;;14.39;100.00
25658;BME280;13517;59.320;18.042;2022-07-23T02:41:27;100585.13;;;14.31;100.00
25658;BME280;13517;59.320;18.042;2022-07-23T02:43:52;100612.50;;;14.51;100.00
25658;BME280;13517;59.320;18.042;2022-07-23T02:46:17;100592.88;;;14.47;100.00
25658;BME280;13517;59.320;18.042;2022-07-23T02:48:43;100611.88;;;14.47;100.00
25658;BME280;13517;59.320;18.042;2022-07-23T02:51:08;100610.53;;;14.41;100.00
25658;BME280;13517;59.320;18.042;2022-07-23T02:53:33;100618.69;;;14.41;100.00
25658;BME280;13517;59.320;18.042;2022-07-23T02:55:59;100597.38;;;14.25;100.00
25658;BME280;13517;59.320;18.042;2022-07-23T02:58:24;100603.75;;;14.24;100.00
25658;BME280;13517;59.320;18.042;2022-07-23T03:00:51;100621.78;;;14.37;100.00
25658;BME280;13517;59.320;18.042;2022-07-23T03:03:17;100602.03;;;14.23;100.00
25658;BME280;13517;59.320;18.042;2022-07-23T03:05:42;100608.97;;;14.16;100.00
25658;BME280;13517;59.320;18.042;2022-07-23T03:08:07;100629.22;;;14.23;100.00
25658;BME280;13517;59.320;18.042;2022-07-23T03:10:32;100627.00;;;14.17;100.00
25658;BME280;13517;59.320;18.042;2022-07-23T03:12:58;100622.94;;;14.11;100.00
25658;BME280;13517;59.320;18.042;2022-07-23T03:15:23;100611.47;;;14.08;100.00
25658;BME280;13517;59.320;18.042;2022-07-23T03:17:48;100619.00;;;14.15;100.00
25658;BME280;13517;59.320;18.042;2022-07-23T03:20:14;100640.47;;;14.30;100.00
25658;BME280;13517;59.320;18.042;2022-07-23T03:22:39;100622.31;;;14.19;100.00
25658;BME280;13517;59.320;18.042;2022-07-23T03:25:05;100644.66;;;14.23;100.00
25658;BME280;13517;59.320;18.042;2022-07-23T03:27:30;100621.72;;;14.04;100.00
25658;BME280;13517;59.320;18.042;2022-07-23T03:29:57;100625.53;;;14.01;100.00
25658;BME280;13517;59.320;18.042;2022-07-23T03:32:24;100647.75;;;14.07;100.00
25658;BME280;13517;59.320;18.042;2022-07-23T03:34:49;100648.66;;;14.07;100.00
25658;BME280;13517;59.320;18.042;2022-07-23T03:37:16;100642.34;;;14.07;100.00
25658;BME280;13517;59.320;18.042;2022-07-23T03:39:41;100637.03;;;14.05;100.00
25658;BME280;13517;59.320;18.042;2022-07-23T03:42:07;100626.03;;;14.07;100.00
25658;BME280;13517;59.320;18.042;2022-07-23T03:44:32;100619.72;;;14.06;100.00
25658;BME280;13517;59.320;18.042;2022-07-23T03:46:57;100615.91;;;14.09;100.00
25658;BME280;13517;59.320;18.042;2022-07-23T03:49:23;100634.66;;;14.23;100.00
25658;BME280;13517;59.320;18.042;2022-07-23T03:51:48;100611.56;;;14.18;100.00
25658;BME280;13517;59.320;18.042;2022-07-23T03:54:13;100614.28;;;14.29;100.00
25658;BME280;13517;59.320;18.042;2022-07-23T03:56:39;100640.19;;;14.44;100.00
25658;BME280;13517;59.320;18.042;2022-07-23T03:59:04;100641.75;;;14.58;100.00
25658;BME280;13517;59.320;18.042;2022-07-23T04:01:30;100649.38;;;14.65;100.00
25658;BME280;13517;59.320;18.042;2022-07-23T04:03:55;100623.50;;;14.49;100.00
25658;BME280;13517;59.320;18.042;2022-07-23T04:06:20;100641.84;;;14.68;100.00
25658;BME280;13517;59.320;18.042;2022-07-23T04:08:46;100639.38;;;14.77;100.00
25658;BME280;13517;59.320;18.042;2022-07-23T04:11:11;100637.28;;;14.69;100.00
25658;BME280;13517;59.320;18.042;2022-07-23T04:13:36;100631.38;;;14.52;100.00
25658;BME280;13517;59.320;18.042;2022-07-23T04:16:02;100651.41;;;14.51;100.00
25658;BME280;13517;59.320;18.042;2022-07-23T04:18:28;100615.13;;;14.41;100.00
25658;BME280;13517;59.320;18.042;2022-07-23T04:20:53;100638.03;;;14.60;100.00
25658;BME280;13517;59.320;18.042;2022-07-23T04:23:19;100658.25;;;14.67;100.00
25658;BME280;13517;59.320;18.042;2022-07-23T04:25:44;100644.47;;;14.58;100.00
25658;BME280;13517;59.320;18.042;2022-07-23T04:28:09;100658.25;;;14.67;100.00
25658;BME280;13517;59.320;18.042;2022-07-23T04:30:35;100639.03;;;14.58;100.00
25658;BME280;13517;59.320;18.042;2022-07-23T04:33:00;100655.31;;;14.81;100.00
25658;BME280;13517;59.320;18.042;2022-07-23T04:35:26;100652.31;;;14.84;100.00
25658;BME280;13517;59.320;18.042;2022-07-23T04:37:51;100651.94;;;14.89;100.00
25658;BME280;13517;59.320;18.042;2022-07-23T04:40:16;100648.59;;;14.86;100.00
25658;BME280;13517;59.320;18.042;2022-07-23T04:42:42;100637.72;;;14.86;100.00
25658;BME280;13517;59.320;18.042;2022-07-23T04:45:07;100629.69;;;14.84;100.00
25658;BME280;13517;59.320;18.042;2022-07-23T04:47:33;100642.44;;;14.83;100.00
25658;BME280;13517;59.320;18.042;2022-07-23T04:49:58;100666.66;;;14.87;100.00
25658;BME280;13517;59.320;18.042;2022-07-23T04:52:24;100632.22;;;14.64;100.00
25658;BME280;13517;59.320;18.042;2022-07-23T04:54:49;100626.41;;;14.57;100.00
25658;BME280;13517;59.320;18.042;2022-07-23T04:57:15;100653.19;;;14.85;100.00
25658;BME280;13517;59.320;18.042;2022-07-23T04:59:40;100635.28;;;14.71;100.00
25658;BME280;13517;59.320;18.042;2022-07-23T05:02:05;100643.16;;;14.86;100.00
25658;BME280;13517;59.320;18.042;2022-07-23T05:04:31;100650.84;;;14.80;100.00
25658;BME280;13517;59.320;18.042;2022-07-23T05:06:57;100653.72;;;14.79;100.00
25658;BME280;13517;59.320;18.042;2022-07-23T05:09:23;100671.09;;;14.88;100.00
25658;BME280;13517;59.320;18.042;2022-07-23T05:11:48;100669.44;;;14.75;100.00
25658;BME280;13517;59.320;18.042;2022-07-23T05:14:14;100666.19;;;14.81;100.00
25658;BME280;13517;59.320;18.042;2022-07-23T05:16:39;100657.91;;;14.71;100.00
25658;BME280;13517;59.320;18.042;2022-07-23T05:19:04;100668.91;;;14.81;100.00
25658;BME280;13517;59.320;18.042;2022-07-23T05:21:30;100662.09;;;14.87;100.00
25658;BME280;13517;59.320;18.042;2022-07-23T05:23:55;100650.59;;;14.83;100.00
25658;BME280;13517;59.320;18.042;2022-07-23T05:26:20;100636.66;;;14.77;100.00
25658;BME280;13517;59.320;18.042;2022-07-23T05:28:45;100663.16;;;14.96;100.00
25658;BME280;13517;59.320;18.042;2022-07-23T05:31:11;100646.88;;;14.84;100.00
25658;BME280;13517;59.320;18.042;2022-07-23T05:33:36;100654.94;;;14.86;100.00
25658;BME280;13517;59.320;18.042;2022-07-23T05:36:02;100666.13;;;14.93;100.00
25658;BME280;13517;59.320;18.042;2022-07-23T05:38:28;100663.28;;;14.94;100.00
25658;BME280;13517;59.320;18.042;2022-07-23T05:40:54;100634.28;;;14.83;100.00
25658;BME280;13517;59.320;18.042;2022-07-23T05:43:19;100666.22;;;15.03;100.00
25658;BME280;13517;59.320;18.042;2022-07-23T05:45:44;100663.50;;;15.03;100.00
25658;BME280;13517;59.320;18.042;2022-07-23T05:48:10;100670.06;;;15.00;100.00
25658;BME280;13517;59.320;18.042;2022-07-23T05:50:35;100654.66;;;14.89;100.00
25658;BME280;13517;59.320;18.042;2022-07-23T05:53:00;100659.03;;;15.13;100.00
25658;BME280;13517;59.320;18.042;2022-07-23T05:55:25;100645.06;;;15.06;100.00
25658;BME280;13517;59.320;18.042;2022-07-23T05:57:54;100655.03;;;15.17;100.00
25658;BME280;13517;59.320;18.042;2022-07-23T06:00:19;100653.78;;;15.21;100.00
25658;BME280;13517;59.320;18.042;2022-07-23T06:02:44;100639.03;;;15.03;100.00
25658;BME280;13517;59.320;18.042;2022-07-23T06:05:10;100640.41;;;14.97;100.00
25658;BME280;13517;59.320;18.042;2022-07-23T06:07:35;100632.06;;;14.89;100.00
25658;BME280;13517;59.320;18.042;2022-07-23T06:10:00;100654.75;;;14.99;100.00
25658;BME280;13517;59.320;18.042;2022-07-23T06:12:26;100657.66;;;15.07;100.00
25658;BME280;13517;59.320;18.042;2022-07-23T06:14:51;100657.22;;;15.23;100.00
25658;BME280;13517;59.320;18.042;2022-07-23T06:17:17;100629.06;;;15.34;100.00
25658;BME280;13517;59.320;18.042;2022-07-23T06:19:43;100635.06;;;15.49;100.00
25658;BME280;13517;59.320;18.042;2022-07-23T06:22:08;100657.81;;;15.70;100.00
25658;BME280;13517;59.320;18.042;2022-07-23T06:24:33;100629.91;;;15.56;100.00
25658;BME280;13517;59.320;18.042;2022-07-23T06:26:59;100632.81;;;15.64;100.00
25658;BME280;13517;59.320;18.042;2022-07-23T06:29:24;100653.81;;;15.74;100.00
25658;BME280;13517;59.320;18.042;2022-07-23T06:31:49;100655.38;;;15.76;100.00
25658;BME280;13517;59.320;18.042;2022-07-23T06:34:14;100627.66;;;15.61;100.00
25658;BME280;13517;59.320;18.042;2022-07-23T06:36:40;100641.81;;;15.86;100.00
25658;BME280;13517;59.320;18.042;2022-07-23T06:39:05;100652.53;;;15.99;100.00
25658;BME280;13517;59.320;18.042;2022-07-23T06:41:31;100639.34;;;15.95;100.00
25658;BME280;13517;59.320;18.042;2022-07-23T06:43:56;100653.94;;;15.93;100.00
25658;BME280;13517;59.320;18.042;2022-07-23T06:46:21;100663.91;;;15.83;100.00
25658;BME280;13517;59.320;18.042;2022-07-23T06:48:47;100650.69;;;15.78;100.00
25658;BME280;13517;59.320;18.042;2022-07-23T06:51:12;100662.84;;;15.96;100.00
25658;BME280;13517;59.320;18.042;2022-07-23T06:53:37;100654.44;;;16.09;100.00
25658;BME280;13517;59.320;18.042;2022-07-23T06:56:03;100660.81;;;16.29;100.00
25658;BME280;13517;59.320;18.042;2022-07-23T06:58:28;100670.47;;;16.43;100.00
25658;BME280;13517;59.320;18.042;2022-07-23T07:00:53;100645.78;;;16.34;100.00
25658;BME280;13517;59.320;18.042;2022-07-23T07:03:18;100642.88;;;16.36;100.00
25658;BME280;13517;59.320;18.042;2022-07-23T07:05:44;100654.97;;;16.43;100.00
25658;BME280;13517;59.320;18.042;2022-07-23T07:08:10;100637.88;;;16.41;100.00
25658;BME280;13517;59.320;18.042;2022-07-23T07:10:36;100642.22;;;16.54;100.00
25658;BME280;13517;59.320;18.042;2022-07-23T07:13:01;100658.31;;;16.67;100.00
25658;BME280;13517;59.320;18.042;2022-07-23T07:15:26;100667.22;;;16.79;100.00
25658;BME280;13517;59.320;18.042;2022-07-23T07:17:52;100671.81;;;16.78;100.00
25658;BME280;13517;59.320;18.042;2022-07-23T07:20:17;100670.81;;;16.69;100.00
25658;BME280;13517;59.320;18.042;2022-07-23T07:22:42;100675.97;;;16.72;100.00
25658;BME280;13517;59.320;18.042;2022-07-23T07:25:08;100678.13;;;16.79;100.00
25658;BME280;13517;59.320;18.042;2022-07-23T07:27:34;100666.25;;;16.80;100.00
25658;BME280;13517;59.320;18.042;2022-07-23T07:29:59;100661.94;;;16.77;99.73
25658;BME280;13517;59.320;18.042;2022-07-23T07:32:24;100666.81;;;16.83;99.38
25658;BME280;13517;59.320;18.042;2022-07-23T07:34:50;100683.16;;;16.93;98.94
25658;BME280;13517;59.320;18.042;2022-07-23T07:37:15;100665.94;;;16.83;98.44
25658;BME280;13517;59.320;18.042;2022-07-23T07:39:41;100656.19;;;16.80;97.69
25658;BME280;13517;59.320;18.042;2022-07-23T07:42:06;100671.09;;;16.86;97.29
25658;BME280;13517;59.320;18.042;2022-07-23T07:44:31;100677.56;;;16.85;97.24
25658;BME280;13517;59.320;18.042;2022-07-23T07:46:56;100656.03;;;16.72;97.21
25658;BME280;13517;59.320;18.042;2022-07-23T07:49:22;100665.38;;;16.89;97.22
25658;BME280;13517;59.320;18.042;2022-07-23T07:51:47;100666.66;;;16.85;97.62
25658;BME280;13517;59.320;18.042;2022-07-23T07:54:13;100670.25;;;16.85;97.77
25658;BME280;13517;59.320;18.042;2022-07-23T07:56:38;100684.75;;;16.96;97.44
25658;BME280;13517;59.320;18.042;2022-07-23T07:59:03;100670.13;;;16.87;97.55
25658;BME280;13517;59.320;18.042;2022-07-23T08:01:29;100687.06;;;16.91;97.22
25658;BME280;13517;59.320;18.042;2022-07-23T08:03:54;100694.38;;;16.90;97.82
25658;BME280;13517;59.320;18.042;2022-07-23T08:06:19;100697.25;;;16.88;97.66
25658;BME280;13517;59.320;18.042;2022-07-23T08:08:45;100694.50;;;16.79;97.72
25658;BME280;13517;59.320;18.042;2022-07-23T08:11:10;100705.25;;;16.70;98.15
25658;BME280;13517;59.320;18.042;2022-07-23T08:13:35;100686.72;;;16.64;98.58
25658;BME280;13517;59.320;18.042;2022-07-23T08:16:01;100702.97;;;16.75;98.41
25658;BME280;13517;59.320;18.042;2022-07-23T08:18:26;100679.69;;;16.61;97.91
25658;BME280;13517;59.320;18.042;2022-07-23T08:20:51;100717.47;;;16.66;97.87
25658;BME280;13517;59.320;18.042;2022-07-23T08:23:17;100688.84;;;16.51;98.22
25658;BME280;13517;59.320;18.042;2022-07-23T08:25:45;100688.44;;;16.65;97.68
25658;BME280;13517;59.320;18.042;2022-07-23T08:28:12;100719.22;;;16.87;97.70
25658;BME280;13517;59.320;18.042;2022-07-23T08:30:39;100710.50;;;17.03;97.66
25658;BME280;13517;59.320;18.042;2022-07-23T08:33:10;100717.69;;;17.14;96.83
25658;BME280;13517;59.320;18.042;2022-07-23T08:35:38;100722.88;;;17.17;96.07
25658;BME280;13517;59.320;18.042;2022-07-23T08:38:06;100716.84;;;17.13;95.86
25658;BME280;13517;59.320;18.042;2022-07-23T08:40:35;100716.25;;;17.10;95.78
25658;BME280;13517;59.320;18.042;2022-07-23T08:43:07;100685.31;;;16.89;96.89
25658;BME280;13517;59.320;18.042;2022-07-23T08:45:40;100699.38;;;16.85;97.49
25658;BME280;13517;59.320;18.042;2022-07-23T08:48:11;100720.81;;;16.80;97.96
25658;BME280;13517;59.320;18.042;2022-07-23T08:50:37;100714.31;;;16.71;97.82
25658;BME280;13517;59.320;18.042;2022-07-23T08:53:06;100737.16;;;16.80;98.22
25658;BME280;13517;59.320;18.042;2022-07-23T08:55:31;100744.34;;;16.81;98.14
25658;BME280;13517;59.320;18.042;2022-07-23T08:57:57;100737.16;;;16.80;98.15
25658;BME280;13517;59.320;18.042;2022-07-23T09:00:22;100725.09;;;16.82;97.75
25658;BME280;13517;59.320;18.042;2022-07-23T09:02:48;100717.31;;;16.78;97.95
25658;BME280;13517;59.320;18.042;2022-07-23T09:05:15;100748.66;;;16.93;97.36
25658;BME280;13517;59.320;18.042;2022-07-23T09:08:10;100737.75;;;16.83;97.77
25658;BME280;13517;59.320;18.042;2022-07-23T09:10:56;100734.44;;;16.80;97.88
25658;BME280;13517;59.320;18.042;2022-07-23T09:18:41;100736.06;;;17.02;96.83
25658;BME280;13517;59.320;18.042;2022-07-23T09:21:14;100739.25;;;17.17;95.40
25658;BME280;13517;59.320;18.042;2022-07-23T09:26:23;100743.84;;;17.66;92.98
25658;BME280;13517;59.320;18.042;2022-07-23T09:28:58;100743.25;;;17.72;91.74
25658;BME280;13517;59.320;18.042;2022-07-23T09:31:25;100740.09;;;17.77;92.43
25658;BME280;13517;59.320;18.042;2022-07-23T09:34:06;100744.69;;;17.56;92.61
25658;BME280;13517;59.320;18.042;2022-07-23T09:36:33;100716.84;;;17.33;94.62
25658;BME280;13517;59.320;18.042;2022-07-23T09:38:58;100744.16;;;17.23;95.69
25658;BME280;13517;59.320;18.042;2022-07-23T09:41:23;100739.81;;;17.11;95.84
25658;BME280;13517;59.320;18.042;2022-07-23T09:43:54;100757.50;;;17.17;96.00
25658;BME280;13517;59.320;18.042;2022-07-23T09:46:25;100765.66;;;17.07;96.36
25658;BME280;13517;59.320;18.042;2022-07-23T09:48:52;100764.81;;;17.06;95.98
25658;BME280;13517;59.320;18.042;2022-07-23T09:51:19;100761.94;;;17.18;95.86
25658;BME280;13517;59.320;18.042;2022-07-23T09:54:01;100754.06;;;17.24;95.27
25658;BME280;13517;59.320;18.042;2022-07-23T09:56:28;100760.69;;;17.41;94.22
25658;BME280;13517;59.320;18.042;2022-07-23T09:58:54;100741.25;;;17.45;93.48
25658;BME280;13517;59.320;18.042;2022-07-23T10:01:31;100745.13;;;17.62;93.01
25658;BME280;13517;59.320;18.042;2022-07-23T10:03:57;100755.34;;;17.79;92.39
25658;BME280;13517;59.320;18.042;2022-07-23T10:06:23;100752.72;;;17.88;91.99
25658;BME280;13517;59.320;18.042;2022-07-23T10:08:50;100736.03;;;17.81;92.47
25658;BME280;13517;59.320;18.042;2022-07-23T10:11:17;100734.91;;;17.74;92.47
25658;BME280;13517;59.320;18.042;2022-07-23T10:13:43;100739.41;;;17.45;93.88
25658;BME280;13517;59.320;18.042;2022-07-23T10:16:13;100755.66;;;17.37;94.77
25658;BME280;13517;59.320;18.042;2022-07-23T10:18:39;100770.16;;;17.37;94.46
25658;BME280;13517;59.320;18.042;2022-07-23T10:21:07;100760.25;;;17.36;94.85
25658;BME280;13517;59.320;18.042;2022-07-23T10:23:44;100761.38;;;17.34;95.59
25658;BME280;13517;59.320;18.042;2022-07-23T10:31:57;100774.84;;;17.06;96.29
25658;BME280;13517;59.320;18.042;2022-07-23T10:34:42;100761.59;;;16.91;96.65
25658;BME280;13517;59.320;18.042;2022-07-23T10:37:18;100769.41;;;17.06;97.56
25658;BME280;13517;59.320;18.042;2022-07-23T10:40:09;100773.50;;;16.90;98.21
25658;BME280;13517;59.320;18.042;2022-07-23T10:42:35;100743.75;;;16.77;98.45
25658;BME280;13517;59.320;18.042;2022-07-23T10:45:00;100762.13;;;16.85;99.70
25658;BME280;13517;59.320;18.042;2022-07-23T10:47:28;100781.81;;;16.88;99.86
25658;BME280;13517;59.320;18.042;2022-07-23T10:49:53;100752.03;;;16.66;100.00
25658;BME280;13517;59.320;18.042;2022-07-23T10:52:21;100751.47;;;16.62;100.00
25658;BME280;13517;59.320;18.042;2022-07-23T10:54:52;100768.69;;;16.72;100.00
25658;BME280;13517;59.320;18.042;2022-07-23T10:57:22;100757.38;;;16.67;100.00
25658;BME280;13517;59.320;18.042;2022-07-23T11:00:21;100776.03;;;16.72;100.00
25658;BME280;13517;59.320;18.042;2022-07-23T11:02:49;100778.78;;;16.72;100.00
25658;BME280;13517;59.320;18.042;2022-07-23T11:05:18;100766.94;;;16.61;100.00
25658;BME280;13517;59.320;18.042;2022-07-23T11:10:42;100762.81;;;16.67;100.00
25658;BME280;13517;59.320;18.042;2022-07-23T11:13:40;100787.66;;;16.74;100.00
25658;BME280;13517;59.320;18.042;2022-07-23T11:16:11;100778.91;;;16.70;100.00
25658;BME280;13517;59.320;18.042;2022-07-23T11:34:40;100798.03;;;16.18;100.00
25658;BME280;13517;59.320;18.042;2022-07-23T11:37:11;100790.16;;;16.15;100.00
25658;BME280;13517;59.320;18.042;2022-07-23T11:39:37;100793.13;;;16.12;100.00
25658;BME280;13517;59.320;18.042;2022-07-23T11:42:06;100790.28;;;16.13;100.00
25658;BME280;13517;59.320;18.042;2022-07-23T11:44:33;100789.56;;;16.11;100.00
25658;BME280;13517;59.320;18.042;2022-07-23T11:47:10;100783.81;;;16.14;100.00
25658;BME280;13517;59.320;18.042;2022-07-23T11:49:37;100768.41;;;16.03;100.00
25658;BME280;13517;59.320;18.042;2022-07-23T11:52:10;100769.34;;;16.14;100.00
25658;BME280;13517;59.320;18.042;2022-07-23T11:54:47;100784.34;;;16.08;100.00
25658;BME280;13517;59.320;18.042;2022-07-23T11:57:12;100766.28;;;16.07;100.00
25658;BME280;13517;59.320;18.042;2022-07-23T11:59:38;100778.72;;;16.21;100.00
25658;BME280;13517;59.320;18.042;2022-07-23T12:02:05;100784.94;;;16.33;100.00
25658;BME280;13517;59.320;18.042;2022-07-23T12:04:46;100788.59;;;16.22;100.00
25658;BME280;13517;59.320;18.042;2022-07-23T12:07:24;100785.88;;;16.01;100.00
25658;BME280;13517;59.320;18.042;2022-07-23T12:09:49;100775.03;;;15.89;100.00
25658;BME280;13517;59.320;18.042;2022-07-23T12:12:15;100780.50;;;15.89;100.00
25658;BME280;13517;59.320;18.042;2022-07-23T12:14:56;100794.97;;;15.90;100.00
25658;BME280;13517;59.320;18.042;2022-07-23T12:17:31;100784.69;;;15.93;100.00
25658;BME280;13517;59.320;18.042;2022-07-23T12:19:57;100771.22;;;15.92;100.00
25658;BME280;13517;59.320;18.042;2022-07-23T12:22:25;100774.44;;;15.86;100.00
25658;BME280;13517;59.320;18.042;2022-07-23T12:24:59;100780.63;;;15.88;100.00
25658;BME280;13517;59.320;18.042;2022-07-23T12:27:25;100784.44;;;15.97;100.00
25658;BME280;13517;59.320;18.042;2022-07-23T12:29:51;100803.44;;;16.08;100.00
25658;BME280;13517;59.320;18.042;2022-07-23T12:32:27;100782.22;;;15.90;100.00
25658;BME280;13517;59.320;18.042;2022-07-23T12:35:08;100781.88;;;15.84;100.00
25658;BME280;13517;59.320;18.042;2022-07-23T12:37:38;100763.41;;;15.87;100.00
25658;BME280;13517;59.320;18.042;2022-07-23T12:43:08;100790.28;;;16.13;100.00
25658;BME280;13517;59.320;18.042;2022-07-23T12:45:48;100796.84;;;16.32;100.00
25658;BME280;13517;59.320;18.042;2022-07-23T12:48:23;100792.56;;;16.39;100.00
25658;BME280;13517;59.320;18.042;2022-07-23T12:50:56;100773.56;;;16.28;100.00
25658;BME280;13517;59.320;18.042;2022-07-23T12:53:26;100782.72;;;16.48;100.00
25658;BME280;13517;59.320;18.042;2022-07-23T12:56:05;100799.09;;;16.58;100.00
25658;BME280;13517;59.320;18.042;2022-07-23T12:58:43;100797.66;;;16.54;100.00
25658;BME280;13517;59.320;18.042;2022-07-23T13:06:33;100816.47;;;16.57;100.00
25658;BME280;13517;59.320;18.042;2022-07-23T13:08:59;100800.50;;;16.52;100.00
25658;BME280;13517;59.320;18.042;2022-07-23T13:11:25;100796.94;;;16.52;100.00
25658;BME280;13517;59.320;18.042;2022-07-23T13:13:50;100785.69;;;16.45;100.00